sensor_id;sensor_type;location;lat;lon;timestamp;temperature;humidity
9215;DHT22;4642;51.364;6.788;2022-09-03T00:02:01;15.00;18.30
9215;DHT22;4642;51.364;6.788;2022-09-03T00:04:43;15.70;1.00
9215;DHT22;4642;51.364;6.788;2022-09-03T00:07:29;15.00;1.00
9215;DHT22;4642;51.364;6.788;2022-09-03T00:10:02;14.90;1.00
9215;DHT22;4642;51.364;6.788;2022-09-03T00:12:32;15.90;1.00
9215;DHT22;4642;51.364;6.788;2022-09-03T00:15:06;15.40;1.00
9215;DHT22;4642;51.364;6.788;2022-09-03T00:17:39;14.90;1.00
9215;DHT22;4642;51.364;6.788;2022-09-03T00:20:14;14.90;1.00
9215;DHT22;4642;51.364;6.788;2022-09-03T00:22:53;14.90;1.00
9215;DHT22;4642;51.364;6.788;2022-09-03T00:25:37;14.80;8.90
9215;DHT22;4642;51.364;6.788;2022-09-03T00:28:10;15.40;99.90
9215;DHT22;4642;51.364;6.788;2022-09-03T00:30:38;15.80;99.90
9215;DHT22;4642;51.364;6.788;2022-09-03T00:33:20;15.00;99.90
9215;DHT22;4642;51.364;6.788;2022-09-03T00:35:54;15.80;99.90
9215;DHT22;4642;51.364;6.788;2022-09-03T00:38:21;14.80;99.90
9215;DHT22;4642;51.364;6.788;2022-09-03T00:54:56;14.60;23.90
9215;DHT22;4642;51.364;6.788;2022-09-03T00:57:57;14.70;1.00
9215;DHT22;4642;51.364;6.788;2022-09-03T01:00:27;14.70;1.00
9215;DHT22;4642;51.364;6.788;2022-09-03T01:06:00;14.70;1.00
9215;DHT22;4642;51.364;6.788;2022-09-03T01:08:45;14.60;1.00
9215;DHT22;4642;51.364;6.788;2022-09-03T01:11:31;15.20;1.00
9215;DHT22;4642;51.364;6.788;2022-09-03T01:14:17;14.70;1.00
9215;DHT22;4642;51.364;6.788;2022-09-03T01:16:59;14.60;1.00
9215;DHT22;4642;51.364;6.788;2022-09-03T01:30:28;14.60;1.00
9215;DHT22;4642;51.364;6.788;2022-09-03T01:33:03;14.50;1.00
9215;DHT22;4642;51.364;6.788;2022-09-03T01:38:38;14.50;1.00
9215;DHT22;4642;51.364;6.788;2022-09-03T01:41:26;14.50;1.00
9215;DHT22;4642;51.364;6.788;2022-09-03T01:52:55;14.40;1.00
9215;DHT22;4642;51.364;6.788;2022-09-03T01:57:53;14.40;1.00
9215;DHT22;4642;51.364;6.788;2022-09-03T02:00:21;15.50;1.00
9215;DHT22;4642;51.364;6.788;2022-09-03T02:02:49;14.30;1.00
9215;DHT22;4642;51.364;6.788;2022-09-03T02:08:05;14.30;1.00
9215;DHT22;4642;51.364;6.788;2022-09-03T02:10:33;14.70;1.00
9215;DHT22;4642;51.364;6.788;2022-09-03T02:13:34;14.40;1.00
9215;DHT22;4642;51.364;6.788;2022-09-03T02:16:09;14.30;1.00
9215;DHT22;4642;51.364;6.788;2022-09-03T02:18:39;14.30;1.00
9215;DHT22;4642;51.364;6.788;2022-09-03T02:21:06;15.30;1.00
9215;DHT22;4642;51.364;6.788;2022-09-03T02:23:32;14.20;1.00
9215;DHT22;4642;51.364;6.788;2022-09-03T02:26:00;14.20;1.00
9215;DHT22;4642;51.364;6.788;2022-09-03T02:28:28;14.20;1.00
9215;DHT22;4642;51.364;6.788;2022-09-03T02:30:53;14.10;1.00
9215;DHT22;4642;51.364;6.788;2022-09-03T02:33:19;14.70;1.00
9215;DHT22;4642;51.364;6.788;2022-09-03T02:35:45;14.10;1.00
9215;DHT22;4642;51.364;6.788;2022-09-03T02:38:20;14.10;1.00
9215;DHT22;4642;51.364;6.788;2022-09-03T02:40:46;14.10;1.00
9215;DHT22;4642;51.364;6.788;2022-09-03T02:43:39;15.30;1.00
9215;DHT22;4642;51.364;6.788;2022-09-03T02:46:09;14.00;1.00
9215;DHT22;4642;51.364;6.788;2022-09-03T02:48:37;14.40;1.00
9215;DHT22;4642;51.364;6.788;2022-09-03T02:51:03;13.90;1.00
9215;DHT22;4642;51.364;6.788;2022-09-03T02:53:28;13.90;1.00
9215;DHT22;4642;51.364;6.788;2022-09-03T02:56:00;13.90;1.00
9215;DHT22;4642;51.364;6.788;2022-09-03T02:58:26;13.90;1.00
9215;DHT22;4642;51.364;6.788;2022-09-03T03:00:53;13.90;1.00
9215;DHT22;4642;51.364;6.788;2022-09-03T03:03:19;13.90;18.10
9215;DHT22;4642;51.364;6.788;2022-09-03T03:08:12;13.90;85.40
9215;DHT22;4642;51.364;6.788;2022-09-03T03:10:40;13.90;99.90
9215;DHT22;4642;51.364;6.788;2022-09-03T03:13:09;13.80;99.90
9215;DHT22;4642;51.364;6.788;2022-09-03T03:15:34;13.80;99.90
9215;DHT22;4642;51.364;6.788;2022-09-03T03:18:00;13.80;99.90
9215;DHT22;4642;51.364;6.788;2022-09-03T03:20:25;13.80;99.90
9215;DHT22;4642;51.364;6.788;2022-09-03T03:22:51;13.80;99.90
9215;DHT22;4642;51.364;6.788;2022-09-03T03:25:16;13.80;99.90
9215;DHT22;4642;51.364;6.788;2022-09-03T03:27:42;13.70;99.90
9215;DHT22;4642;51.364;6.788;2022-09-03T03:30:09;14.00;99.90
9215;DHT22;4642;51.364;6.788;2022-09-03T03:32:38;13.60;99.90
9215;DHT22;4642;51.364;6.788;2022-09-03T03:35:05;14.60;99.90
9215;DHT22;4642;51.364;6.788;2022-09-03T03:37:32;13.60;99.90
9215;DHT22;4642;51.364;6.788;2022-09-03T03:39:59;13.60;99.90
9215;DHT22;4642;51.364;6.788;2022-09-03T03:42:25;13.50;99.90
9215;DHT22;4642;51.364;6.788;2022-09-03T03:44:51;13.60;1.00
9215;DHT22;4642;51.364;6.788;2022-09-03T03:47:16;13.50;1.00
9215;DHT22;4642;51.364;6.788;2022-09-03T03:49:43;13.40;1.00
9215;DHT22;4642;51.364;6.788;2022-09-03T03:52:08;13.20;1.00
9215;DHT22;4642;51.364;6.788;2022-09-03T03:54:34;13.40;1.00
9215;DHT22;4642;51.364;6.788;2022-09-03T03:56:59;14.00;1.00
9215;DHT22;4642;51.364;6.788;2022-09-03T03:59:25;13.40;1.00
9215;DHT22;4642;51.364;6.788;2022-09-03T04:01:53;13.30;1.00
9215;DHT22;4642;51.364;6.788;2022-09-03T04:04:18;13.30;1.00
9215;DHT22;4642;51.364;6.788;2022-09-03T04:06:44;13.30;1.00
9215;DHT22;4642;51.364;6.788;2022-09-03T04:09:09;13.40;1.00
9215;DHT22;4642;51.364;6.788;2022-09-03T04:11:35;13.70;1.00
9215;DHT22;4642;51.364;6.788;2022-09-03T04:14:01;13.20;1.00
9215;DHT22;4642;51.364;6.788;2022-09-03T04:16:27;12.70;1.00
9215;DHT22;4642;51.364;6.788;2022-09-03T04:18:54;13.20;1.00
9215;DHT22;4642;51.364;6.788;2022-09-03T04:21:25;13.20;1.00
9215;DHT22;4642;51.364;6.788;2022-09-03T04:23:52;13.10;1.00
9215;DHT22;4642;51.364;6.788;2022-09-03T04:26:24;13.20;1.00
9215;DHT22;4642;51.364;6.788;2022-09-03T04:28:50;13.10;1.00
9215;DHT22;4642;51.364;6.788;2022-09-03T04:31:17;13.10;1.00
9215;DHT22;4642;51.364;6.788;2022-09-03T04:33:43;13.00;96.20
9215;DHT22;4642;51.364;6.788;2022-09-03T04:36:20;14.50;99.90
9215;DHT22;4642;51.364;6.788;2022-09-03T04:38:48;13.30;99.90
9215;DHT22;4642;51.364;6.788;2022-09-03T04:41:16;13.10;99.90
9215;DHT22;4642;51.364;6.788;2022-09-03T04:43:42;13.30;99.90
9215;DHT22;4642;51.364;6.788;2022-09-03T04:46:10;13.50;1.00
9215;DHT22;4642;51.364;6.788;2022-09-03T04:48:36;13.00;1.00
9215;DHT22;4642;51.364;6.788;2022-09-03T04:51:09;13.10;1.00
9215;DHT22;4642;51.364;6.788;2022-09-03T04:53:37;13.00;1.00
9215;DHT22;4642;51.364;6.788;2022-09-03T04:56:29;13.00;1.00
9215;DHT22;4642;51.364;6.788;2022-09-03T04:58:57;13.00;1.00
9215;DHT22;4642;51.364;6.788;2022-09-03T05:01:25;13.00;1.00
9215;DHT22;4642;51.364;6.788;2022-09-03T05:03:51;13.30;20.00
9215;DHT22;4642;51.364;6.788;2022-09-03T05:06:17;12.90;99.90
9215;DHT22;4642;51.364;6.788;2022-09-03T05:08:49;14.40;7.60
9215;DHT22;4642;51.364;6.788;2022-09-03T05:11:15;12.90;1.00
9215;DHT22;4642;51.364;6.788;2022-09-03T05:13:41;12.90;1.00
9215;DHT22;4642;51.364;6.788;2022-09-03T05:16:10;12.90;3.00
9215;DHT22;4642;51.364;6.788;2022-09-03T05:18:37;13.00;7.20
9215;DHT22;4642;51.364;6.788;2022-09-03T05:21:12;12.90;1.00
9215;DHT22;4642;51.364;6.788;2022-09-03T05:23:46;13.00;57.30
9215;DHT22;4642;51.364;6.788;2022-09-03T05:26:17;12.90;37.30
9215;DHT22;4642;51.364;6.788;2022-09-03T05:28:44;12.90;99.90
9215;DHT22;4642;51.364;6.788;2022-09-03T05:31:17;12.90;99.90
9215;DHT22;4642;51.364;6.788;2022-09-03T05:33:48;12.90;99.90
9215;DHT22;4642;51.364;6.788;2022-09-03T05:36:16;12.90;99.90
9215;DHT22;4642;51.364;6.788;2022-09-03T05:38:42;12.90;99.90
9215;DHT22;4642;51.364;6.788;2022-09-03T05:41:09;12.90;99.90
9215;DHT22;4642;51.364;6.788;2022-09-03T05:43:36;12.90;99.90
9215;DHT22;4642;51.364;6.788;2022-09-03T05:46:05;13.40;99.90
9215;DHT22;4642;51.364;6.788;2022-09-03T05:48:32;12.90;99.90
9215;DHT22;4642;51.364;6.788;2022-09-03T05:51:09;12.90;99.90
9215;DHT22;4642;51.364;6.788;2022-09-03T05:53:37;13.00;1.00
9215;DHT22;4642;51.364;6.788;2022-09-03T05:56:06;13.00;1.00
9215;DHT22;4642;51.364;6.788;2022-09-03T05:58:34;13.00;1.00
9215;DHT22;4642;51.364;6.788;2022-09-03T06:01:09;13.00;1.00
9215;DHT22;4642;51.364;6.788;2022-09-03T06:03:35;13.10;1.00
9215;DHT22;4642;51.364;6.788;2022-09-03T06:06:00;13.10;1.00
9215;DHT22;4642;51.364;6.788;2022-09-03T06:08:26;13.10;1.00
9215;DHT22;4642;51.364;6.788;2022-09-03T06:10:57;13.10;1.00
9215;DHT22;4642;51.364;6.788;2022-09-03T06:13:23;13.10;1.00
9215;DHT22;4642;51.364;6.788;2022-09-03T06:15:49;13.20;1.00
9215;DHT22;4642;51.364;6.788;2022-09-03T06:18:14;13.20;1.00
9215;DHT22;4642;51.364;6.788;2022-09-03T06:20:40;13.20;1.00
9215;DHT22;4642;51.364;6.788;2022-09-03T06:23:05;13.30;1.00
9215;DHT22;4642;51.364;6.788;2022-09-03T06:25:31;13.30;1.00
9215;DHT22;4642;51.364;6.788;2022-09-03T06:27:56;13.70;1.00
9215;DHT22;4642;51.364;6.788;2022-09-03T06:30:23;13.40;1.00
9215;DHT22;4642;51.364;6.788;2022-09-03T06:32:50;14.00;1.00
9215;DHT22;4642;51.364;6.788;2022-09-03T06:35:17;13.60;1.00
9215;DHT22;4642;51.364;6.788;2022-09-03T06:37:42;13.60;39.00
9215;DHT22;4642;51.364;6.788;2022-09-03T06:40:09;13.70;1.00
9215;DHT22;4642;51.364;6.788;2022-09-03T06:42:41;13.80;99.90
9215;DHT22;4642;51.364;6.788;2022-09-03T06:45:10;13.80;72.90
9215;DHT22;4642;51.364;6.788;2022-09-03T06:47:35;13.90;31.20
9215;DHT22;4642;51.364;6.788;2022-09-03T06:50:01;14.00;1.00
9215;DHT22;4642;51.364;6.788;2022-09-03T06:52:28;14.10;14.60
9215;DHT22;4642;51.364;6.788;2022-09-03T06:54:54;14.30;1.00
9215;DHT22;4642;51.364;6.788;2022-09-03T06:57:19;14.30;1.00
9215;DHT22;4642;51.364;6.788;2022-09-03T06:59:45;14.90;99.90
9215;DHT22;4642;51.364;6.788;2022-09-03T07:02:11;14.50;16.90
9215;DHT22;4642;51.364;6.788;2022-09-03T07:04:36;14.70;99.70
9215;DHT22;4642;51.364;6.788;2022-09-03T07:07:02;14.80;99.90
9215;DHT22;4642;51.364;6.788;2022-09-03T07:09:28;14.90;1.00
9215;DHT22;4642;51.364;6.788;2022-09-03T07:11:54;15.00;47.10
9215;DHT22;4642;51.364;6.788;2022-09-03T07:14:20;15.30;99.90
9215;DHT22;4642;51.364;6.788;2022-09-03T07:16:48;15.20;1.00
9215;DHT22;4642;51.364;6.788;2022-09-03T07:19:14;15.40;99.90
9215;DHT22;4642;51.364;6.788;2022-09-03T07:21:40;15.50;1.00
9215;DHT22;4642;51.364;6.788;2022-09-03T07:24:06;15.70;1.00
9215;DHT22;4642;51.364;6.788;2022-09-03T07:26:38;15.90;1.00
9215;DHT22;4642;51.364;6.788;2022-09-03T07:29:06;16.10;1.00
9215;DHT22;4642;51.364;6.788;2022-09-03T07:31:34;16.20;99.90
9215;DHT22;4642;51.364;6.788;2022-09-03T07:34:09;16.30;99.90
9215;DHT22;4642;51.364;6.788;2022-09-03T07:36:37;16.10;99.90
9215;DHT22;4642;51.364;6.788;2022-09-03T07:39:03;16.70;98.40
9215;DHT22;4642;51.364;6.788;2022-09-03T07:41:29;17.40;1.00
9215;DHT22;4642;51.364;6.788;2022-09-03T07:43:58;17.00;1.00
9215;DHT22;4642;51.364;6.788;2022-09-03T07:46:25;17.10;1.00
9215;DHT22;4642;51.364;6.788;2022-09-03T07:48:53;17.20;1.00
9215;DHT22;4642;51.364;6.788;2022-09-03T07:51:21;17.40;1.00
9215;DHT22;4642;51.364;6.788;2022-09-03T07:53:48;17.40;1.00
9215;DHT22;4642;51.364;6.788;2022-09-03T07:56:16;17.60;1.00
9215;DHT22;4642;51.364;6.788;2022-09-03T07:58:42;17.70;99.90
9215;DHT22;4642;51.364;6.788;2022-09-03T08:01:13;17.90;99.90
9215;DHT22;4642;51.364;6.788;2022-09-03T08:03:43;17.80;99.90
9215;DHT22;4642;51.364;6.788;2022-09-03T08:06:10;18.10;1.00
9215;DHT22;4642;51.364;6.788;2022-09-03T08:08:37;18.10;99.90
9215;DHT22;4642;51.364;6.788;2022-09-03T08:11:08;18.20;99.90
9215;DHT22;4642;51.364;6.788;2022-09-03T08:13:46;18.30;99.90
9215;DHT22;4642;51.364;6.788;2022-09-03T08:16:14;18.40;99.90
9215;DHT22;4642;51.364;6.788;2022-09-03T08:18:41;18.50;99.90
9215;DHT22;4642;51.364;6.788;2022-09-03T08:21:08;18.60;99.90
9215;DHT22;4642;51.364;6.788;2022-09-03T08:23:41;18.70;99.90
9215;DHT22;4642;51.364;6.788;2022-09-03T08:26:08;18.20;99.90
9215;DHT22;4642;51.364;6.788;2022-09-03T08:28:35;19.00;1.00
9215;DHT22;4642;51.364;6.788;2022-09-03T08:31:08;19.10;1.00
9215;DHT22;4642;51.364;6.788;2022-09-03T08:33:36;19.20;1.00
9215;DHT22;4642;51.364;6.788;2022-09-03T08:36:13;19.40;2.20
9215;DHT22;4642;51.364;6.788;2022-09-03T08:38:42;19.40;1.00
9215;DHT22;4642;51.364;6.788;2022-09-03T08:46:54;19.60;1.00
9215;DHT22;4642;51.364;6.788;2022-09-03T08:52:28;19.80;1.00
9215;DHT22;4642;51.364;6.788;2022-09-03T08:57:45;20.00;1.00
9215;DHT22;4642;51.364;6.788;2022-09-03T09:00:12;20.60;1.00
9215;DHT22;4642;51.364;6.788;2022-09-03T09:08:03;20.50;1.00
9215;DHT22;4642;51.364;6.788;2022-09-03T09:11:19;20.40;1.00
9215;DHT22;4642;51.364;6.788;2022-09-03T09:13:24;20.50;1.00
9215;DHT22;4642;51.364;6.788;2022-09-03T09:16:00;20.50;1.00
9215;DHT22;4642;51.364;6.788;2022-09-03T09:18:47;20.50;1.00
9215;DHT22;4642;51.364;6.788;2022-09-03T09:21:43;20.90;1.00
9215;DHT22;4642;51.364;6.788;2022-09-03T09:24:20;20.70;1.00
9215;DHT22;4642;51.364;6.788;2022-09-03T09:26:48;20.70;1.00
9215;DHT22;4642;51.364;6.788;2022-09-03T09:29:14;21.20;1.00
9215;DHT22;4642;51.364;6.788;2022-09-03T09:31:40;20.90;1.00
9215;DHT22;4642;51.364;6.788;2022-09-03T09:34:10;20.80;1.00
9215;DHT22;4642;51.364;6.788;2022-09-03T09:36:56;20.90;1.00
9215;DHT22;4642;51.364;6.788;2022-09-03T09:39:22;20.90;1.00
9215;DHT22;4642;51.364;6.788;2022-09-03T09:42:20;20.90;1.00
9215;DHT22;4642;51.364;6.788;2022-09-03T09:44:45;21.10;1.00
9215;DHT22;4642;51.364;6.788;2022-09-03T09:47:20;21.00;1.00
9215;DHT22;4642;51.364;6.788;2022-09-03T09:49:53;21.10;1.00
9215;DHT22;4642;51.364;6.788;2022-09-03T09:52:21;21.20;1.00
9215;DHT22;4642;51.364;6.788;2022-09-03T09:54:51;21.40;1.00
9215;DHT22;4642;51.364;6.788;2022-09-03T09:57:22;21.50;1.00
9215;DHT22;4642;51.364;6.788;2022-09-03T09:59:48;21.60;1.00
9215;DHT22;4642;51.364;6.788;2022-09-03T10:02:27;21.60;1.00
9215;DHT22;4642;51.364;6.788;2022-09-03T10:05:11;21.70;1.00
9215;DHT22;4642;51.364;6.788;2022-09-03T10:07:37;21.80;1.00
9215;DHT22;4642;51.364;6.788;2022-09-03T10:10:06;22.00;1.00
9215;DHT22;4642;51.364;6.788;2022-09-03T10:15:44;21.90;1.00
9215;DHT22;4642;51.364;6.788;2022-09-03T10:21:21;22.10;1.00
9215;DHT22;4642;51.364;6.788;2022-09-03T10:24:00;22.20;1.00
9215;DHT22;4642;51.364;6.788;2022-09-03T10:26:30;22.20;1.00
9215;DHT22;4642;51.364;6.788;2022-09-03T10:28:59;22.30;1.00
9215;DHT22;4642;51.364;6.788;2022-09-03T10:37:17;22.50;1.00
9215;DHT22;4642;51.364;6.788;2022-09-03T10:51:19;22.90;99.90
9215;DHT22;4642;51.364;6.788;2022-09-03T10:56:28;23.00;99.90
9215;DHT22;4642;51.364;6.788;2022-09-03T10:59:15;22.90;99.90
9215;DHT22;4642;51.364;6.788;2022-09-03T11:04:37;22.70;1.00
9215;DHT22;4642;51.364;6.788;2022-09-03T11:07:12;22.80;1.00
9215;DHT22;4642;51.364;6.788;2022-09-03T11:09:49;22.80;1.00
9215;DHT22;4642;51.364;6.788;2022-09-03T11:12:31;22.80;1.00
9215;DHT22;4642;51.364;6.788;2022-09-03T11:15:03;22.90;1.00
9215;DHT22;4642;51.364;6.788;2022-09-03T11:17:40;23.10;1.00
9215;DHT22;4642;51.364;6.788;2022-09-03T11:20:20;23.00;1.00
9215;DHT22;4642;51.364;6.788;2022-09-03T11:22:48;23.10;1.00
9215;DHT22;4642;51.364;6.788;2022-09-03T11:25:16;23.20;1.00
9215;DHT22;4642;51.364;6.788;2022-09-03T11:30:21;23.10;1.00
9215;DHT22;4642;51.364;6.788;2022-09-03T11:33:06;23.10;1.00
9215;DHT22;4642;51.364;6.788;2022-09-03T11:38:04;23.20;1.00
9215;DHT22;4642;51.364;6.788;2022-09-03T11:43:27;23.40;1.00
9215;DHT22;4642;51.364;6.788;2022-09-03T11:48:52;23.60;1.00
9215;DHT22;4642;51.364;6.788;2022-09-03T11:51:30;23.50;1.00
9215;DHT22;4642;51.364;6.788;2022-09-03T11:56:22;23.80;1.00
9215;DHT22;4642;51.364;6.788;2022-09-03T11:59:14;23.60;1.00
9215;DHT22;4642;51.364;6.788;2022-09-03T12:04:14;23.90;99.90
9215;DHT22;4642;51.364;6.788;2022-09-03T12:18:23;24.00;99.90
9215;DHT22;4642;51.364;6.788;2022-09-03T12:26:12;24.30;99.90
9215;DHT22;4642;51.364;6.788;2022-09-03T12:28:42;24.40;99.90
9215;DHT22;4642;51.364;6.788;2022-09-03T12:31:22;24.40;99.90
9215;DHT22;4642;51.364;6.788;2022-09-03T12:36:21;24.50;99.90
9215;DHT22;4642;51.364;6.788;2022-09-03T12:38:47;24.60;99.90
9215;DHT22;4642;51.364;6.788;2022-09-03T12:41:51;24.50;99.90
9215;DHT22;4642;51.364;6.788;2022-09-03T12:44:46;24.50;99.90
9215;DHT22;4642;51.364;6.788;2022-09-03T12:47:16;24.50;99.90
9215;DHT22;4642;51.364;6.788;2022-09-03T12:49:44;24.40;99.90
9215;DHT22;4642;51.364;6.788;2022-09-03T12:52:34;24.50;99.90
9215;DHT22;4642;51.364;6.788;2022-09-03T13:00:48;24.30;99.90
9215;DHT22;4642;51.364;6.788;2022-09-03T13:03:28;24.20;99.90
9215;DHT22;4642;51.364;6.788;2022-09-03T13:05:57;24.20;99.90
9215;DHT22;4642;51.364;6.788;2022-09-03T13:08:27;24.20;99.90
9215;DHT22;4642;51.364;6.788;2022-09-03T13:10:56;24.20;99.90
9215;DHT22;4642;51.364;6.788;2022-09-03T13:13:29;24.20;99.90
9215;DHT22;4642;51.364;6.788;2022-09-03T13:26:41;24.30;1.00
9215;DHT22;4642;51.364;6.788;2022-09-03T13:29:28;24.40;1.00
9215;DHT22;4642;51.364;6.788;2022-09-03T13:32:02;24.40;1.00
9215;DHT22;4642;51.364;6.788;2022-09-03T13:34:40;24.30;1.00
9215;DHT22;4642;51.364;6.788;2022-09-03T13:37:29;24.30;1.00
9215;DHT22;4642;51.364;6.788;2022-09-03T13:43:04;24.50;1.00
9215;DHT22;4642;51.364;6.788;2022-09-03T13:45:42;24.60;1.00
9215;DHT22;4642;51.364;6.788;2022-09-03T13:48:31;24.70;99.90
9215;DHT22;4642;51.364;6.788;2022-09-03T13:51:24;24.80;1.00
9215;DHT22;4642;51.364;6.788;2022-09-03T13:54:17;24.90;99.90
9215;DHT22;4642;51.364;6.788;2022-09-03T13:57:04;24.90;1.00
9215;DHT22;4642;51.364;6.788;2022-09-03T13:59:53;25.00;99.90
9215;DHT22;4642;51.364;6.788;2022-09-03T14:05:30;25.20;99.90
9215;DHT22;4642;51.364;6.788;2022-09-03T14:13:56;25.50;99.90
9215;DHT22;4642;51.364;6.788;2022-09-03T14:19:20;25.70;99.90
9215;DHT22;4642;51.364;6.788;2022-09-03T14:21:55;25.80;99.90
9215;DHT22;4642;51.364;6.788;2022-09-03T14:24:47;25.70;99.90
9215;DHT22;4642;51.364;6.788;2022-09-03T14:27:12;25.80;99.90
9215;DHT22;4642;51.364;6.788;2022-09-03T14:29:37;26.00;99.90
9215;DHT22;4642;51.364;6.788;2022-09-03T14:32:42;26.00;99.90
9215;DHT22;4642;51.364;6.788;2022-09-03T14:41:09;26.10;99.90
9215;DHT22;4642;51.364;6.788;2022-09-03T14:49:11;26.40;99.90
9215;DHT22;4642;51.364;6.788;2022-09-03T14:52:02;26.30;99.90
9215;DHT22;4642;51.364;6.788;2022-09-03T14:57:44;26.10;99.90
9215;DHT22;4642;51.364;6.788;2022-09-03T15:00:18;25.80;99.90
9215;DHT22;4642;51.364;6.788;2022-09-03T15:02:47;25.80;99.90
9215;DHT22;4642;51.364;6.788;2022-09-03T15:08:09;25.70;99.90
9215;DHT22;4642;51.364;6.788;2022-09-03T15:10:58;26.00;99.90
9215;DHT22;4642;51.364;6.788;2022-09-03T15:13:34;26.10;99.90
9215;DHT22;4642;51.364;6.788;2022-09-03T15:16:07;26.00;99.90
9215;DHT22;4642;51.364;6.788;2022-09-03T15:18:50;26.00;99.90
9215;DHT22;4642;51.364;6.788;2022-09-03T15:29:48;26.30;99.90
9215;DHT22;4642;51.364;6.788;2022-09-03T15:34:52;25.90;99.90
9215;DHT22;4642;51.364;6.788;2022-09-03T15:40:17;25.60;99.90
9215;DHT22;4642;51.364;6.788;2022-09-03T15:42:45;25.50;99.90
9215;DHT22;4642;51.364;6.788;2022-09-03T15:45:34;25.40;1.00
9215;DHT22;4642;51.364;6.788;2022-09-03T15:48:09;25.30;1.00
9215;DHT22;4642;51.364;6.788;2022-09-03T15:50:54;25.20;1.00
9215;DHT22;4642;51.364;6.788;2022-09-03T15:54:08;25.20;1.00
9215;DHT22;4642;51.364;6.788;2022-09-03T15:56:34;25.50;1.00
9215;DHT22;4642;51.364;6.788;2022-09-03T16:07:06;27.00;99.90
9215;DHT22;4642;51.364;6.788;2022-09-03T16:12:09;27.50;99.90
9215;DHT22;4642;51.364;6.788;2022-09-03T16:14:44;27.70;90.30
9215;DHT22;4642;51.364;6.788;2022-09-03T16:17:27;28.00;72.90
9215;DHT22;4642;51.364;6.788;2022-09-03T16:20:21;28.10;21.00
9215;DHT22;4642;51.364;6.788;2022-09-03T16:23:15;28.30;16.40
9215;DHT22;4642;51.364;6.788;2022-09-03T16:26:06;28.50;21.50
9215;DHT22;4642;51.364;6.788;2022-09-03T16:28:54;28.60;1.00
9215;DHT22;4642;51.364;6.788;2022-09-03T16:31:48;28.70;7.00
9215;DHT22;4642;51.364;6.788;2022-09-03T16:34:39;28.70;1.00
9215;DHT22;4642;51.364;6.788;2022-09-03T16:37:32;28.70;1.00
9215;DHT22;4642;51.364;6.788;2022-09-03T16:40:34;28.80;1.00
9215;DHT22;4642;51.364;6.788;2022-09-03T16:43:24;28.80;1.00
9215;DHT22;4642;51.364;6.788;2022-09-03T16:48:38;28.80;1.00
9215;DHT22;4642;51.364;6.788;2022-09-03T16:51:43;28.70;1.00
9215;DHT22;4642;51.364;6.788;2022-09-03T16:57:08;28.00;31.40
9215;DHT22;4642;51.364;6.788;2022-09-03T16:59:54;28.10;27.90
9215;DHT22;4642;51.364;6.788;2022-09-03T17:02:54;28.20;27.10
9215;DHT22;4642;51.364;6.788;2022-09-03T17:06:04;28.20;28.30
9215;DHT22;4642;51.364;6.788;2022-09-03T17:11:17;28.10;42.90
9215;DHT22;4642;51.364;6.788;2022-09-03T17:17:00;27.80;99.90
9215;DHT22;4642;51.364;6.788;2022-09-03T17:25:27;26.90;99.90
9215;DHT22;4642;51.364;6.788;2022-09-03T17:30:54;26.30;99.90
9215;DHT22;4642;51.364;6.788;2022-09-03T17:34:01;26.10;99.90
9215;DHT22;4642;51.364;6.788;2022-09-03T17:36:26;25.70;1.00
9215;DHT22;4642;51.364;6.788;2022-09-03T17:52:42;24.40;99.90
9215;DHT22;4642;51.364;6.788;2022-09-03T17:55:28;24.10;1.00
9215;DHT22;4642;51.364;6.788;2022-09-03T17:58:13;24.10;1.00
9215;DHT22;4642;51.364;6.788;2022-09-03T18:00:52;23.90;1.00
9215;DHT22;4642;51.364;6.788;2022-09-03T18:03:38;23.80;1.00
9215;DHT22;4642;51.364;6.788;2022-09-03T18:06:09;23.70;1.00
9215;DHT22;4642;51.364;6.788;2022-09-03T18:09:02;23.60;1.00
9215;DHT22;4642;51.364;6.788;2022-09-03T18:11:38;23.60;47.00
9215;DHT22;4642;51.364;6.788;2022-09-03T18:16:38;23.50;99.90
9215;DHT22;4642;51.364;6.788;2022-09-03T18:19:26;23.10;99.90
9215;DHT22;4642;51.364;6.788;2022-09-03T18:21:57;23.20;99.90
9215;DHT22;4642;51.364;6.788;2022-09-03T18:24:51;23.10;1.00
9215;DHT22;4642;51.364;6.788;2022-09-03T18:30:25;23.00;1.00
9215;DHT22;4642;51.364;6.788;2022-09-03T18:33:09;22.90;1.00
9215;DHT22;4642;51.364;6.788;2022-09-03T18:35:54;22.90;1.00
9215;DHT22;4642;51.364;6.788;2022-09-03T18:38:39;22.80;1.00
9215;DHT22;4642;51.364;6.788;2022-09-03T18:54:20;22.60;42.50
9215;DHT22;4642;51.364;6.788;2022-09-03T18:57:16;22.60;33.30
9215;DHT22;4642;51.364;6.788;2022-09-03T19:00:07;22.70;99.90
9215;DHT22;4642;51.364;6.788;2022-09-03T19:09:04;22.40;99.90
9215;DHT22;4642;51.364;6.788;2022-09-03T19:14:54;22.30;99.90
9215;DHT22;4642;51.364;6.788;2022-09-03T19:17:49;22.30;99.90
9215;DHT22;4642;51.364;6.788;2022-09-03T19:20:38;22.20;99.90
9215;DHT22;4642;51.364;6.788;2022-09-03T19:23:24;22.20;1.00
9215;DHT22;4642;51.364;6.788;2022-09-03T19:29:45;22.10;1.00
9215;DHT22;4642;51.364;6.788;2022-09-03T19:32:42;22.00;1.00
9215;DHT22;4642;51.364;6.788;2022-09-03T19:42:10;21.80;1.00
9215;DHT22;4642;51.364;6.788;2022-09-03T19:45:49;21.80;11.80
9215;DHT22;4642;51.364;6.788;2022-09-03T19:48:39;21.70;96.20
9215;DHT22;4642;51.364;6.788;2022-09-03T19:51:34;21.60;99.90
9215;DHT22;4642;51.364;6.788;2022-09-03T19:54:24;21.50;99.90
9215;DHT22;4642;51.364;6.788;2022-09-03T19:57:12;21.60;99.90
9215;DHT22;4642;51.364;6.788;2022-09-03T19:59:57;21.30;99.90
9215;DHT22;4642;51.364;6.788;2022-09-03T20:02:47;21.30;1.00
9215;DHT22;4642;51.364;6.788;2022-09-03T20:05:32;21.20;1.00
9215;DHT22;4642;51.364;6.788;2022-09-03T20:08:18;21.20;1.00
9215;DHT22;4642;51.364;6.788;2022-09-03T20:11:05;21.20;1.00
9215;DHT22;4642;51.364;6.788;2022-09-03T20:13:38;21.10;1.00
9215;DHT22;4642;51.364;6.788;2022-09-03T20:16:37;21.10;8.50
9215;DHT22;4642;51.364;6.788;2022-09-03T20:21:53;21.00;99.90
9215;DHT22;4642;51.364;6.788;2022-09-03T20:28:16;20.80;1.00
9215;DHT22;4642;51.364;6.788;2022-09-03T20:30:49;20.70;1.00
9215;DHT22;4642;51.364;6.788;2022-09-03T20:41:54;20.50;1.00
9215;DHT22;4642;51.364;6.788;2022-09-03T20:50:53;20.30;1.00
9215;DHT22;4642;51.364;6.788;2022-09-03T21:02:00;20.10;1.00
9215;DHT22;4642;51.364;6.788;2022-09-03T21:05:08;20.10;99.90
9215;DHT22;4642;51.364;6.788;2022-09-03T21:08:02;20.00;99.90
9215;DHT22;4642;51.364;6.788;2022-09-03T21:10:47;19.90;99.90
9215;DHT22;4642;51.364;6.788;2022-09-03T21:13:20;19.80;99.90
9215;DHT22;4642;51.364;6.788;2022-09-03T21:16:12;19.80;99.90
9215;DHT22;4642;51.364;6.788;2022-09-03T21:19:18;19.80;99.90
9215;DHT22;4642;51.364;6.788;2022-09-03T21:21:55;19.70;99.90
9215;DHT22;4642;51.364;6.788;2022-09-03T21:24:27;19.60;99.90
9215;DHT22;4642;51.364;6.788;2022-09-03T21:27:14;19.60;99.90
9215;DHT22;4642;51.364;6.788;2022-09-03T21:33:01;19.60;99.90
9215;DHT22;4642;51.364;6.788;2022-09-03T21:35:30;19.50;1.00
9215;DHT22;4642;51.364;6.788;2022-09-03T21:40:27;19.40;1.00
9215;DHT22;4642;51.364;6.788;2022-09-03T21:48:51;19.20;1.00
9215;DHT22;4642;51.364;6.788;2022-09-03T21:51:33;19.20;1.00
9215;DHT22;4642;51.364;6.788;2022-09-03T21:54:15;19.20;1.00
9215;DHT22;4642;51.364;6.788;2022-09-03T21:57:19;19.10;1.00
9215;DHT22;4642;51.364;6.788;2022-09-03T22:02:29;19.20;1.00
9215;DHT22;4642;51.364;6.788;2022-09-03T22:04:56;19.10;1.00
9215;DHT22;4642;51.364;6.788;2022-09-03T22:07:47;19.10;1.00
9215;DHT22;4642;51.364;6.788;2022-09-03T22:10:20;19.00;1.00
9215;DHT22;4642;51.364;6.788;2022-09-03T22:15:56;18.90;1.00
9215;DHT22;4642;51.364;6.788;2022-09-03T22:18:31;18.90;1.00
9215;DHT22;4642;51.364;6.788;2022-09-03T22:23:58;18.70;1.00
9215;DHT22;4642;51.364;6.788;2022-09-03T22:35:09;18.40;99.90